ADDS METAR Data INFO
IDs: Format: Raw Decoded Include TAF

Data at: 0112 UTC 20 Feb 2018

KWMC 200056Z AUTO 32014G19KT 10SM CLR M03/M16 A2983 RMK AO2 SLP124 T10281161
KWMC 192356Z AUTO 32014G23KT 10SM CLR M01/M16 A2979 RMK AO2 SLP109 60001 T10061156 10006 21033 53013
KWMC 192256Z AUTO 32018G24KT 10SM FEW055 SCT070 BKN080 00/M14 A2977 RMK AO2 WSHFT 2143 SNB19E32 SLP100 P0001 T00001139
KWMC 192203Z AUTO 36008G18KT 10SM FEW050 SCT060 BKN085 M02/M13 A2977 RMK AO2 WSHFT 2143 T10221128
KWMC 192156Z AUTO 35013KT 10SM SCT055 BKN090 OVC110 M02/M12 A2977 RMK AO2 PK WND 30027/2107 WSHFT 2138 SLP103 T10221117
KWMC 192056Z AUTO 29009G15KT 240V070 10SM SCT039 BKN046 OVC085 M01/M11 A2975 RMK AO2 SLP097 T10111111 58001
KWMC 191956Z AUTO 29008KT 10SM SCT049 BKN065 M01/M11 A2976 RMK AO2 SLP096 T10111111
KWMC 191856Z AUTO 33014KT 10SM SCT047 BKN060 OVC075 M03/M11 A2977 RMK AO2 SLP104 T10331111
KWMC 191756Z AUTO VRB03KT 10SM BKN037 BKN075 M03/M11 A2975 RMK AO2 SLP095 60000 T10331111 11033 21078 51018
KWMC 191656Z AUTO 32007KT 10SM OVC075 M04/M10 A2973 RMK AO2 SLP086 T10391100
KWMC 191556Z AUTO 31009KT 10SM BKN070 M05/M10 A2972 RMK AO2 SLP083 T10501100
KWMC 191456Z AUTO 33003KT 10SM FEW029 BKN047 OVC070 M06/M09 A2970 RMK AO2 SNE38 SLP079 P0000 60000 T10611094 53015
KWMC 191427Z AUTO 29003KT 5SM -SN BKN035 OVC048 M06/M08 A2969 RMK AO2 P0000 T10561083
KWMC 191418Z AUTO 30003KT 2 1/2SM -SN BKN029 OVC050 M06/M08 A2968 RMK AO2 P0000 T10561083
KWMC 191408Z AUTO 29004KT 9SM -SN BKN033 OVC048 M06/M09 A2968 RMK AO2 P0000 T10561089
KWMC 191356Z AUTO 27004KT 4SM -SN BKN027 OVC050 M06/M09 A2967 RMK AO2 SNB11 SLP071 P0000 T10561089
KWMC 191346Z AUTO 25004KT 3SM -SN OVC023 M06/M09 A2967 RMK AO2 SNB11 P0000 T10561089
KWMC 191339Z AUTO 26005KT 2 1/2SM -SN OVC025 M06/M09 A2967 RMK AO2 SNB11 P0000 T10561089
KWMC 191331Z AUTO 26003KT 1 3/4SM -SN OVC025 M06/M09 A2967 RMK AO2 SNB11 P0000 T10561089
KWMC 191324Z AUTO 27004KT 2SM -SN BKN027 OVC040 M06/M09 A2967 RMK AO2 SNB11 P0000 T10561089
KWMC 191256Z AUTO 00000KT 10SM OVC042 M05/M08 A2966 RMK AO2 SNB41E50 SLP061 P0000 T10501083
KWMC 191156Z AUTO 31005KT 9SM OVC039 M05/M08 A2965 RMK AO2 SNB33E54 SLP054 P0000 60001 70001 T10501083 11028 21056 53005
KWMC 191056Z AUTO 26005KT 9SM OVC040 M05/M08 A2964 RMK AO2 SNB46E56 SLP049 P0000 T10501083
KWMC 190956Z AUTO 28004KT 10SM BKN046 BKN060 OVC110 M04/M08 A2964 RMK AO2 SLP047 T10441083
KWMC 190856Z AUTO 17003KT 10SM FEW035 BKN065 OVC110 M06/M07 A2963 RMK AO2 SNE10 SLP040 P0000 60001 T10561072 58000
KWMC 190821Z AUTO 10003KT 10SM SCT008 BKN050 OVC080 M04/M07 A2963 RMK AO2 SNE10 P0000 T10391067
KWMC 190806Z AUTO 00000KT 5SM -SN FEW009 BKN026 OVC075 M04/M07 A2963 RMK AO2 P0000 T10391067
KWMC 190753Z AUTO 00000KT 2 1/2SM -SN OVC026 M04/M07 A2963 RMK AO2 SNB11 SLP034 P0001 T10391067 401111039
KWMC 190738Z AUTO 32003KT 8SM -SN FEW022 BKN032 OVC039 M03/M06 A2963 RMK AO2 SNB11 P0001 T10331061
KWMC 190730Z AUTO 33003KT 2SM -SN SCT022 BKN027 OVC038 M03/M06 A2963 RMK AO2 SNB11 P0001 T10331061
KWMC 190723Z AUTO 31003KT 3SM -SN SCT022 BKN027 OVC040 M03/M07 A2963 RMK AO2 SNB11 P0001 T10331067
KWMC 190656Z AUTO 00000KT 10SM BKN037 BKN046 OVC060 M03/M07 A2963 RMK AO2 SNB04E45 SLP037 P0000 T10331067
KWMC 190647Z AUTO 24003KT 9SM BKN029 OVC060 M04/M07 A2963 RMK AO2 SNB04E45 P0000 T10391067
KWMC 190639Z AUTO 23004KT 2SM -SN BR BKN019 OVC060 M04/M06 A2963 RMK AO2 SNB04 P0000 T10391061
KWMC 190632Z AUTO 23003KT 1SM -SN BR VV015 M04/M06 A2963 RMK AO2 SNB04 P0000 T10391061
KWMC 190628Z AUTO 25004KT 3/4SM -SN VV014 M04/M07 A2963 RMK AO2 SNB04 P0000 T10391067
KWMC 190619Z AUTO 26007KT 1 1/4SM -SN BKN018 OVC042 M03/M07 A2963 RMK AO2 SNB04 P0000 T10331072
KWMC 190612Z AUTO 28009KT 2 1/2SM -SN BKN025 OVC042 M03/M08 A2963 RMK AO2 SNB04 P0000 T10281078
KWMC 190556Z AUTO 00000KT 10SM BKN045 OVC100 M03/M07 A2963 RMK AO2 SLP035 60000 T10281072 10011 21028 53008
KWMC 190456Z AUTO 27006KT 10SM BKN048 BKN070 OVC085 M01/M09 A2962 RMK AO2 SLP032 T10111094
KWMC 190356Z AUTO 24006KT 10SM BKN055 OVC070 M01/M11 A2961 RMK AO2 SLP027 T10061106
KWMC 190256Z AUTO 24006KT 10SM OVC070 M02/M07 A2960 RMK AO2 SLP027 60000 T10171067 58008
KWMC 190156Z AUTO 09004KT 10SM OVC100 M02/M06 A2962 RMK AO2 SLP031 T10221061
KWMC 190025Z AUTO 28013KT 3SM -SN FEW029 BKN034 OVC046 M01/M04 A2964 RMK AO2 SNB10 P0000 T10111044
KWMC 190016Z AUTO 28012G20KT 1 3/4SM -SN FEW029 BKN034 OVC050 M01/M05 A2965 RMK AO2 SNB10 P0000 T10061050
KWMC 182356Z AUTO 27009G21KT 10SM FEW047 OVC060 01/M07 A2963 RMK AO2 WSHFT 2256 SNB18E29 SLP027 P0000 60000 T00111067 10094 20011 51012
KWMC 182316Z AUTO 28015G19KT 10SM SCT041 BKN050 OVC060 03/M07 A2963 RMK AO2 WSHFT 2256 T00281067
KWMC 182256Z AUTO 29015G25KT 10SM FEW033 BKN070 OVC090 02/M08 A2963 RMK AO2 PK WND 30027/2159 SLP023 T00221078
KWMC 182156Z AUTO 30020G34KT 6SM HZ BKN035 BKN070 OVC080 03/M07 A2962 RMK AO2 PK WND 28038/2135 SLP018 T00281067
KWMC 182056Z AUTO 30018G32KT 10SM SCT046 BKN075 BKN095 08/M09 A2959 RMK AO2 PK WND 29039/2017 SLP002 T00781094 56020
KWMC 181956Z AUTO 27025G32KT 8SM FEW029 BKN035 OVC095 08/M13 A2960 RMK AO2 PK WND 28032/1954 SLP005 T00831133
KWMC 181856Z AUTO 28019G24KT 10SM BKN090 07/M12 A2963 RMK AO2 PK WND 26030/1826 SLP017 T00721117
KWMC 181756Z AUTO 26021G29KT 10SM FEW070 08/M09 A2966 RMK AO2 PK WND 26029/1752 SLP024 60000 T00781089 10094 20050 58000
KWMC 181656Z AUTO 24009KT 10SM FEW070 OVC100 06/M07 A2967 RMK AO2 SLP034 T00561067
KWMC 181556Z AUTO 28008KT 10SM OVC095 06/M06 A2967 RMK AO2 SLP035 T00561056
KWMC 181456Z AUTO 27010KT 10SM BKN090 06/M03 A2966 RMK AO2 RAE1359 SLP029 P0000 60000 T00561028 55007
KWMC 181356Z AUTO 27010KT 10SM -RA BKN055 BKN070 OVC085 07/M02 A2966 RMK AO2 PK WND 24026/1311 RAB17E26B48 SLP026 P0000 T00721022